sensor_id;sensor_type;location;lat;lon;timestamp;pressure;altitude;pressure_sealevel;temperature;humidity
77110;BME280;66062;52.464;16.922;2023-09-12T00:01:06;100291.84;;;19.59;76.38
77110;BME280;66062;52.464;16.922;2023-09-12T00:03:33;100297.84;;;19.48;78.69
77110;BME280;66062;52.464;16.922;2023-09-12T00:06:00;100288.38;;;19.18;81.01
77110;BME280;66062;52.464;16.922;2023-09-12T00:08:26;100297.19;;;18.86;83.84
77110;BME280;66062;52.464;16.922;2023-09-12T00:11:05;100290.47;;;18.41;85.47
77110;BME280;66062;52.464;16.922;2023-09-12T00:13:34;100289.63;;;18.33;85.64
77110;BME280;66062;52.464;16.922;2023-09-12T00:16:00;100289.63;;;18.40;86.08
77110;BME280;66062;52.464;16.922;2023-09-12T00:18:26;100292.94;;;18.35;85.70
77110;BME280;66062;52.464;16.922;2023-09-12T00:20:52;100282.19;;;18.42;85.58
77110;BME280;66062;52.464;16.922;2023-09-12T00:23:20;100288.84;;;18.46;85.78
77110;BME280;66062;52.464;16.922;2023-09-12T00:25:46;100291.25;;;18.34;86.64
77110;BME280;66062;52.464;16.922;2023-09-12T00:28:11;100294.91;;;18.20;87.26
77110;BME280;66062;52.464;16.922;2023-09-12T00:30:36;100285.47;;;18.10;87.20
77110;BME280;66062;52.464;16.922;2023-09-12T00:33:02;100288.41;;;18.15;87.39
77110;BME280;66062;52.464;16.922;2023-09-12T00:35:27;100286.56;;;18.15;87.55
77110;BME280;66062;52.464;16.922;2023-09-12T00:37:53;100293.22;;;18.13;87.41
77110;BME280;66062;52.464;16.922;2023-09-12T00:40:18;100287.75;;;18.06;87.93
77110;BME280;66062;52.464;16.922;2023-09-12T00:42:45;100290.63;;;18.05;88.05
77110;BME280;66062;52.464;16.922;2023-09-12T00:45:10;100292.13;;;18.07;88.05
77110;BME280;66062;52.464;16.922;2023-09-12T00:47:36;100298.13;;;18.03;88.07
77110;BME280;66062;52.464;16.922;2023-09-12T00:50:02;100281.66;;;17.98;88.69
77110;BME280;66062;52.464;16.922;2023-09-12T00:52:31;100292.22;;;17.92;89.18
77110;BME280;66062;52.464;16.922;2023-09-12T00:54:58;100285.91;;;17.85;89.99
77110;BME280;66062;52.464;16.922;2023-09-12T00:57:23;100293.34;;;17.83;88.98
77110;BME280;66062;52.464;16.922;2023-09-12T00:59:51;100287.97;;;17.83;88.73
77110;BME280;66062;52.464;16.922;2023-09-12T01:02:17;100287.00;;;17.91;88.64
77110;BME280;66062;52.464;16.922;2023-09-12T01:04:43;100292.59;;;17.89;88.99
77110;BME280;66062;52.464;16.922;2023-09-12T01:07:09;100288.09;;;17.75;89.31
77110;BME280;66062;52.464;16.922;2023-09-12T01:09:34;100285.66;;;17.80;89.81
77110;BME280;66062;52.464;16.922;2023-09-12T01:12:00;100294.66;;;17.87;88.93
77110;BME280;66062;52.464;16.922;2023-09-12T01:14:28;100293.31;;;17.77;89.08
77110;BME280;66062;52.464;16.922;2023-09-12T01:16:54;100292.47;;;17.76;90.26
77110;BME280;66062;52.464;16.922;2023-09-12T01:19:22;100287.34;;;17.60;91.85
77110;BME280;66062;52.464;16.922;2023-09-12T01:27:48;100301.13;;;17.50;92.34
77110;BME280;66062;52.464;16.922;2023-09-12T01:30:17;100296.75;;;17.49;91.47
77110;BME280;66062;52.464;16.922;2023-09-12T01:32:45;100298.34;;;17.44;92.11
77110;BME280;66062;52.464;16.922;2023-09-12T01:35:12;100288.84;;;17.48;91.78
77110;BME280;66062;52.464;16.922;2023-09-12T01:37:37;100293.34;;;17.41;92.00
77110;BME280;66062;52.464;16.922;2023-09-12T01:40:03;100297.72;;;17.42;91.76
77110;BME280;66062;52.464;16.922;2023-09-12T01:42:33;100296.69;;;17.43;92.35
77110;BME280;66062;52.464;16.922;2023-09-12T01:45:01;100291.53;;;17.48;92.39
77110;BME280;66062;52.464;16.922;2023-09-12T01:47:27;100302.53;;;17.46;91.84
77110;BME280;66062;52.464;16.922;2023-09-12T01:49:56;100301.88;;;17.59;90.42
77110;BME280;66062;52.464;16.922;2023-09-12T01:52:22;100300.38;;;17.78;88.77
77110;BME280;66062;52.464;16.922;2023-09-12T01:54:49;100294.72;;;17.73;89.70
77110;BME280;66062;52.464;16.922;2023-09-12T01:57:15;100292.81;;;17.67;90.16
77110;BME280;66062;52.464;16.922;2023-09-12T01:59:41;100297.66;;;17.57;91.05
77110;BME280;66062;52.464;16.922;2023-09-12T02:02:07;100296.34;;;17.52;90.78
77110;BME280;66062;52.464;16.922;2023-09-12T02:04:32;100302.53;;;17.46;91.34
77110;BME280;66062;52.464;16.922;2023-09-12T02:06:58;100295.78;;;17.36;92.03
77110;BME280;66062;52.464;16.922;2023-09-12T02:09:23;100291.91;;;17.24;92.21
77110;BME280;66062;52.464;16.922;2023-09-12T02:11:50;100290.63;;;17.20;92.26
77110;BME280;66062;52.464;16.922;2023-09-12T02:14:16;100296.47;;;17.23;92.40
77110;BME280;66062;52.464;16.922;2023-09-12T02:16:43;100294.03;;;17.28;92.44
77110;BME280;66062;52.464;16.922;2023-09-12T02:19:09;100294.50;;;17.32;91.88
77110;BME280;66062;52.464;16.922;2023-09-12T02:21:34;100293.19;;;17.28;92.71
77110;BME280;66062;52.464;16.922;2023-09-12T02:23:59;100291.19;;;17.15;93.89
77110;BME280;66062;52.464;16.922;2023-09-12T02:26:25;100299.59;;;17.05;94.15
77110;BME280;66062;52.464;16.922;2023-09-12T02:28:50;100296.78;;;17.14;93.69
77110;BME280;66062;52.464;16.922;2023-09-12T02:31:15;100294.34;;;17.19;93.01
77110;BME280;66062;52.464;16.922;2023-09-12T02:33:42;100304.38;;;17.25;92.45
77110;BME280;66062;52.464;16.922;2023-09-12T02:36:07;100299.00;;;17.46;91.20
77110;BME280;66062;52.464;16.922;2023-09-12T02:38:33;100300.50;;;17.91;88.09
77110;BME280;66062;52.464;16.922;2023-09-12T02:40:59;100300.88;;;17.88;87.72
77110;BME280;66062;52.464;16.922;2023-09-12T02:43:24;100293.09;;;17.78;89.14
77110;BME280;66062;52.464;16.922;2023-09-12T02:45:49;100294.41;;;17.61;90.62
77110;BME280;66062;52.464;16.922;2023-09-12T02:48:15;100294.88;;;17.29;92.59
77110;BME280;66062;52.464;16.922;2023-09-12T02:50:40;100298.97;;;17.25;92.57
77110;BME280;66062;52.464;16.922;2023-09-12T02:53:06;100295.09;;;17.13;93.10
77110;BME280;66062;52.464;16.922;2023-09-12T02:55:32;100290.94;;;17.10;93.50
77110;BME280;66062;52.464;16.922;2023-09-12T02:57:57;100291.78;;;17.10;93.43
77110;BME280;66062;52.464;16.922;2023-09-12T03:00:22;100289.72;;;17.13;92.93
77110;BME280;66062;52.464;16.922;2023-09-12T03:02:48;100293.25;;;17.13;92.54
77110;BME280;66062;52.464;16.922;2023-09-12T03:05:13;100297.63;;;17.14;92.86
77110;BME280;66062;52.464;16.922;2023-09-12T03:07:38;100290.19;;;17.16;93.19
77110;BME280;66062;52.464;16.922;2023-09-12T03:10:04;100291.59;;;16.97;94.11
77110;BME280;66062;52.464;16.922;2023-09-12T03:12:30;100284.28;;;16.91;94.45
77110;BME280;66062;52.464;16.922;2023-09-12T03:14:56;100290.69;;;16.90;94.44
77110;BME280;66062;52.464;16.922;2023-09-12T03:17:21;100290.69;;;16.90;94.77
77110;BME280;66062;52.464;16.922;2023-09-12T03:19:47;100298.13;;;16.88;94.22
77110;BME280;66062;52.464;16.922;2023-09-12T03:22:12;100292.00;;;16.94;93.52
77110;BME280;66062;52.464;16.922;2023-09-12T03:24:38;100292.84;;;16.95;93.22
77110;BME280;66062;52.464;16.922;2023-09-12T03:27:04;100297.00;;;16.97;93.11
77110;BME280;66062;52.464;16.922;2023-09-12T03:29:29;100294.56;;;17.02;92.78
77110;BME280;66062;52.464;16.922;2023-09-12T03:31:55;100300.50;;;17.13;92.06
77110;BME280;66062;52.464;16.922;2023-09-12T03:34:20;100290.63;;;17.20;91.90
77110;BME280;66062;52.464;16.922;2023-09-12T03:36:45;100291.03;;;17.17;92.15
77110;BME280;66062;52.464;16.922;2023-09-12T03:39:11;100290.13;;;17.31;90.17
77110;BME280;66062;52.464;16.922;2023-09-12T03:41:38;100294.88;;;17.29;90.36
77110;BME280;66062;52.464;16.922;2023-09-12T03:44:04;100292.59;;;17.47;89.43
77110;BME280;66062;52.464;16.922;2023-09-12T03:46:30;100296.50;;;17.44;89.29
77110;BME280;66062;52.464;16.922;2023-09-12T03:48:55;100300.34;;;17.35;90.49
77110;BME280;66062;52.464;16.922;2023-09-12T03:51:20;100301.56;;;17.33;90.25
77110;BME280;66062;52.464;16.922;2023-09-12T03:53:46;100295.63;;;17.23;91.38
77110;BME280;66062;52.464;16.922;2023-09-12T03:56:13;100298.63;;;17.13;91.57
77110;BME280;66062;52.464;16.922;2023-09-12T03:58:39;100301.91;;;17.08;92.15
77110;BME280;66062;52.464;16.922;2023-09-12T04:01:05;100298.94;;;17.03;92.20
77110;BME280;66062;52.464;16.922;2023-09-12T04:03:30;100291.88;;;17.02;93.05
77110;BME280;66062;52.464;16.922;2023-09-12T04:05:55;100294.66;;;17.09;92.55
77110;BME280;66062;52.464;16.922;2023-09-12T04:08:21;100297.03;;;17.19;91.35
77110;BME280;66062;52.464;16.922;2023-09-12T04:10:47;100288.59;;;17.22;90.88
77110;BME280;66062;52.464;16.922;2023-09-12T04:13:12;100282.88;;;17.31;89.93
77110;BME280;66062;52.464;16.922;2023-09-12T04:15:38;100286.03;;;17.35;89.40
77110;BME280;66062;52.464;16.922;2023-09-12T04:18:05;100293.66;;;17.31;89.75
77110;BME280;66062;52.464;16.922;2023-09-12T04:20:30;100282.88;;;17.31;90.10
77110;BME280;66062;52.464;16.922;2023-09-12T04:22:55;100285.22;;;17.20;90.59
77110;BME280;66062;52.464;16.922;2023-09-12T04:25:21;100280.78;;;17.12;91.47
77110;BME280;66062;52.464;16.922;2023-09-12T04:27:46;100281.44;;;17.14;91.31
77110;BME280;66062;52.464;16.922;2023-09-12T04:30:15;100288.06;;;17.12;91.22
77110;BME280;66062;52.464;16.922;2023-09-12T04:32:40;100282.44;;;17.13;90.85
77110;BME280;66062;52.464;16.922;2023-09-12T04:35:06;100280.53;;;17.28;90.09
77110;BME280;66062;52.464;16.922;2023-09-12T04:37:31;100278.69;;;17.29;90.46
77110;BME280;66062;52.464;16.922;2023-09-12T04:39:57;100293.53;;;17.39;90.46
77110;BME280;66062;52.464;16.922;2023-09-12T04:42:22;100279.97;;;17.33;89.88
77110;BME280;66062;52.464;16.922;2023-09-12T04:44:48;100291.50;;;17.41;90.23
77110;BME280;66062;52.464;16.922;2023-09-12T04:47:13;100286.09;;;17.41;90.75
77110;BME280;66062;52.464;16.922;2023-09-12T04:49:39;100285.00;;;17.36;90.59
77110;BME280;66062;52.464;16.922;2023-09-12T04:52:05;100287.97;;;17.41;89.87
77110;BME280;66062;52.464;16.922;2023-09-12T04:54:31;100297.84;;;17.34;90.58
77110;BME280;66062;52.464;16.922;2023-09-12T04:56:56;100285.44;;;17.39;90.12
77110;BME280;66062;52.464;16.922;2023-09-12T04:59:21;100290.53;;;17.49;90.21
77110;BME280;66062;52.464;16.922;2023-09-12T05:01:47;100296.09;;;17.47;89.74
77110;BME280;66062;52.464;16.922;2023-09-12T05:04:12;100294.06;;;17.49;89.70
77110;BME280;66062;52.464;16.922;2023-09-12T05:06:37;100298.63;;;17.49;89.98
77110;BME280;66062;52.464;16.922;2023-09-12T05:09:03;100301.19;;;17.57;89.32
77110;BME280;66062;52.464;16.922;2023-09-12T05:11:30;100290.78;;;17.54;90.01
77110;BME280;66062;52.464;16.922;2023-09-12T05:13:58;100295.44;;;17.60;89.50
77110;BME280;66062;52.464;16.922;2023-09-12T05:16:25;100295.25;;;17.62;89.34
77110;BME280;66062;52.464;16.922;2023-09-12T05:18:50;100293.44;;;17.69;88.97
77110;BME280;66062;52.464;16.922;2023-09-12T05:21:16;100303.78;;;17.86;88.13
77110;BME280;66062;52.464;16.922;2023-09-12T05:23:42;100301.06;;;18.08;86.45
77110;BME280;66062;52.464;16.922;2023-09-12T05:26:07;100310.28;;;18.20;86.19
77110;BME280;66062;52.464;16.922;2023-09-12T05:28:33;100305.34;;;18.23;85.83
77110;BME280;66062;52.464;16.922;2023-09-12T05:30:59;100307.06;;;18.59;83.49
77110;BME280;66062;52.464;16.922;2023-09-12T05:33:24;100308.84;;;18.86;81.89
77110;BME280;66062;52.464;16.922;2023-09-12T05:35:50;100303.38;;;19.27;79.11
77110;BME280;66062;52.464;16.922;2023-09-12T05:38:15;100306.16;;;19.47;77.71
77110;BME280;66062;52.464;16.922;2023-09-12T05:40:40;100305.97;;;19.48;77.87
77110;BME280;66062;52.464;16.922;2023-09-12T05:43:06;100301.53;;;19.34;78.87
77110;BME280;66062;52.464;16.922;2023-09-12T05:45:31;100297.59;;;19.37;78.77
77110;BME280;66062;52.464;16.922;2023-09-12T05:47:58;100308.47;;;18.96;81.57
77110;BME280;66062;52.464;16.922;2023-09-12T05:50:23;100302.09;;;19.16;80.70
77110;BME280;66062;52.464;16.922;2023-09-12T05:52:48;100300.81;;;20.06;76.49
77110;BME280;66062;52.464;16.922;2023-09-12T05:55:14;100295.78;;;21.83;68.99
77110;BME280;66062;52.464;16.922;2023-09-12T05:57:39;100295.00;;;22.68;64.85
77110;BME280;66062;52.464;16.922;2023-09-12T06:00:05;100289.72;;;24.34;59.04
77110;BME280;66062;52.464;16.922;2023-09-12T06:02:30;100292.78;;;25.52;54.08
77110;BME280;66062;52.464;16.922;2023-09-12T06:04:58;100296.59;;;25.80;52.89
77110;BME280;66062;52.464;16.922;2023-09-12T06:07:23;100298.84;;;26.71;49.79
77110;BME280;66062;52.464;16.922;2023-09-12T06:09:50;100296.78;;;27.22;48.25
77110;BME280;66062;52.464;16.922;2023-09-12T09:11:18;100287.69;;;36.90;30.73
77110;BME280;66062;52.464;16.922;2023-09-12T09:13:43;100290.47;;;36.50;29.28
77110;BME280;66062;52.464;16.922;2023-09-12T09:16:18;100287.63;;;38.32;26.47
77110;BME280;66062;52.464;16.922;2023-09-12T09:19:18;100282.94;;;38.62;26.75
77110;BME280;66062;52.464;16.922;2023-09-12T09:21:45;100280.34;;;40.77;23.46
77110;BME280;66062;52.464;16.922;2023-09-12T09:24:14;100275.22;;;40.67;23.56
77110;BME280;66062;52.464;16.922;2023-09-12T09:26:50;100274.63;;;38.83;25.94
77110;BME280;66062;52.464;16.922;2023-09-12T09:29:19;100272.78;;;39.87;24.96
77110;BME280;66062;52.464;16.922;2023-09-12T09:31:48;100275.88;;;37.92;25.64
77110;BME280;66062;52.464;16.922;2023-09-12T09:34:19;100274.59;;;38.91;24.93
77110;BME280;66062;52.464;16.922;2023-09-12T09:39:14;100273.22;;;37.96;26.04
77110;BME280;66062;52.464;16.922;2023-09-12T09:41:40;100285.13;;;35.87;30.46
77110;BME280;66062;52.464;16.922;2023-09-12T09:44:09;100277.84;;;38.64;25.48
77110;BME280;66062;52.464;16.922;2023-09-12T09:46:35;100273.06;;;36.36;27.61
77110;BME280;66062;52.464;16.922;2023-09-12T09:49:02;100276.56;;;36.50;27.86
77110;BME280;66062;52.464;16.922;2023-09-12T09:51:29;100272.88;;;37.11;26.65
77110;BME280;66062;52.464;16.922;2023-09-12T09:53:58;100275.06;;;38.09;25.76
77110;BME280;66062;52.464;16.922;2023-09-12T09:56:26;100270.41;;;39.27;24.75
77110;BME280;66062;52.464;16.922;2023-09-12T09:58:52;100267.78;;;40.26;23.91
77110;BME280;66062;52.464;16.922;2023-09-12T10:01:19;100266.78;;;37.01;26.89
77110;BME280;66062;52.464;16.922;2023-09-12T10:03:52;100266.50;;;39.69;22.88
77110;BME280;66062;52.464;16.922;2023-09-12T10:06:19;100257.63;;;38.21;24.99
77110;BME280;66062;52.464;16.922;2023-09-12T10:08:46;100261.66;;;36.15;28.15
77110;BME280;66062;52.464;16.922;2023-09-12T10:11:15;100263.41;;;36.73;27.34
77110;BME280;66062;52.464;16.922;2023-09-12T10:13:47;100253.56;;;37.49;28.37
77110;BME280;66062;52.464;16.922;2023-09-12T10:16:15;100255.13;;;38.45;26.16
77110;BME280;66062;52.464;16.922;2023-09-12T10:18:58;100256.44;;;38.39;27.08
77110;BME280;66062;52.464;16.922;2023-09-12T10:21:29;100262.81;;;39.78;21.58
77110;BME280;66062;52.464;16.922;2023-09-12T10:23:59;100246.03;;;38.01;22.57
77110;BME280;66062;52.464;16.922;2023-09-12T10:26:25;100255.31;;;39.69;22.00
77110;BME280;66062;52.464;16.922;2023-09-12T10:28:50;100247.34;;;38.59;23.19
77110;BME280;66062;52.464;16.922;2023-09-12T10:31:16;100245.50;;;40.29;21.33
77110;BME280;66062;52.464;16.922;2023-09-12T10:33:43;100252.75;;;41.27;20.60
77110;BME280;66062;52.464;16.922;2023-09-12T10:36:11;100254.41;;;41.68;19.93
77110;BME280;66062;52.464;16.922;2023-09-12T10:38:47;100247.53;;;41.94;19.23
77110;BME280;66062;52.464;16.922;2023-09-12T10:41:14;100252.56;;;40.72;20.75
77110;BME280;66062;52.464;16.922;2023-09-12T10:43:44;100239.97;;;41.14;19.10
77110;BME280;66062;52.464;16.922;2023-09-12T10:46:15;100251.03;;;41.23;18.17
77110;BME280;66062;52.464;16.922;2023-09-12T10:48:40;100246.59;;;41.62;18.22
77110;BME280;66062;52.464;16.922;2023-09-12T10:51:07;100243.13;;;41.53;18.42
77110;BME280;66062;52.464;16.922;2023-09-12T10:53:33;100243.34;;;39.48;21.53
77110;BME280;66062;52.464;16.922;2023-09-12T10:55:59;100244.84;;;41.17;19.25
77110;BME280;66062;52.464;16.922;2023-09-12T10:58:25;100252.63;;;36.40;24.26
77110;BME280;66062;52.464;16.922;2023-09-12T11:01:23;100252.44;;;36.68;24.31
77110;BME280;66062;52.464;16.922;2023-09-12T11:03:50;100248.66;;;36.64;23.51
77110;BME280;66062;52.464;16.922;2023-09-12T11:06:29;100240.69;;;35.87;25.37
77110;BME280;66062;52.464;16.922;2023-09-12T11:09:22;100238.34;;;38.54;23.40
77110;BME280;66062;52.464;16.922;2023-09-12T11:12:08;100235.41;;;40.04;19.49
77110;BME280;66062;52.464;16.922;2023-09-12T11:15:06;100238.50;;;37.42;22.35
77110;BME280;66062;52.464;16.922;2023-09-12T11:17:37;100240.28;;;37.98;22.68
77110;BME280;66062;52.464;16.922;2023-09-12T11:20:03;100238.13;;;35.90;25.36
77110;BME280;66062;52.464;16.922;2023-09-12T11:22:36;100238.34;;;37.81;22.75
77110;BME280;66062;52.464;16.922;2023-09-12T11:25:05;100235.69;;;38.57;22.18
77110;BME280;66062;52.464;16.922;2023-09-12T11:30:17;100233.91;;;38.90;21.85
77110;BME280;66062;52.464;16.922;2023-09-12T11:32:45;100238.91;;;39.26;23.15
77110;BME280;66062;52.464;16.922;2023-09-12T11:35:13;100235.69;;;38.57;21.75
77110;BME280;66062;52.464;16.922;2023-09-12T11:37:39;100234.22;;;39.93;20.63
77110;BME280;66062;52.464;16.922;2023-09-12T11:42:42;100226.75;;;39.64;21.11
77110;BME280;66062;52.464;16.922;2023-09-12T11:45:09;100233.94;;;40.18;19.95
77110;BME280;66062;52.464;16.922;2023-09-12T11:47:34;100238.81;;;38.56;22.12
77110;BME280;66062;52.464;16.922;2023-09-12T11:50:05;100231.88;;;39.20;21.54
77110;BME280;66062;52.464;16.922;2023-09-12T11:52:30;100233.91;;;38.82;22.48
77110;BME280;66062;52.464;16.922;2023-09-12T11:54:55;100232.56;;;39.59;21.04
77110;BME280;66062;52.464;16.922;2023-09-12T11:57:20;100233.25;;;39.77;20.00
77110;BME280;66062;52.464;16.922;2023-09-12T11:59:47;100234.53;;;39.58;22.15
77110;BME280;66062;52.464;16.922;2023-09-12T12:02:16;100230.31;;;37.54;22.88
77110;BME280;66062;52.464;16.922;2023-09-12T12:04:41;100218.97;;;38.02;22.60
77110;BME280;66062;52.464;16.922;2023-09-12T12:07:07;100223.09;;;38.80;22.97
77110;BME280;66062;52.464;16.922;2023-09-12T12:09:33;100226.09;;;38.75;21.71
77110;BME280;66062;52.464;16.922;2023-09-12T12:12:12;100241.94;;;39.75;21.12
77110;BME280;66062;52.464;16.922;2023-09-12T12:14:40;100239.25;;;39.66;20.43
77110;BME280;66062;52.464;16.922;2023-09-12T12:17:10;100230.97;;;39.08;22.74
77110;BME280;66062;52.464;16.922;2023-09-12T12:19:37;100240.34;;;39.53;21.38
77110;BME280;66062;52.464;16.922;2023-09-12T12:22:04;100233.66;;;39.66;20.18
77110;BME280;66062;52.464;16.922;2023-09-12T12:24:38;100223.28;;;38.75;20.74
77110;BME280;66062;52.464;16.922;2023-09-12T12:27:05;100221.88;;;38.23;22.30
77110;BME280;66062;52.464;16.922;2023-09-12T12:29:30;100225.44;;;38.32;22.03
77110;BME280;66062;52.464;16.922;2023-09-12T12:32:00;100221.94;;;37.19;25.15
77110;BME280;66062;52.464;16.922;2023-09-12T12:34:26;100231.50;;;38.34;21.83
77110;BME280;66062;52.464;16.922;2023-09-12T12:36:51;100223.28;;;38.37;21.96
77110;BME280;66062;52.464;16.922;2023-09-12T12:39:18;100231.22;;;35.66;24.74
77110;BME280;66062;52.464;16.922;2023-09-12T12:41:43;100209.34;;;37.48;22.59
77110;BME280;66062;52.464;16.922;2023-09-12T12:44:09;100208.03;;;37.71;23.18
77110;BME280;66062;52.464;16.922;2023-09-12T12:46:53;100209.41;;;38.20;21.73
77110;BME280;66062;52.464;16.922;2023-09-12T12:49:19;100214.94;;;37.48;23.81
77110;BME280;66062;52.464;16.922;2023-09-12T12:51:46;100206.25;;;37.66;23.51
77110;BME280;66062;52.464;16.922;2023-09-12T12:54:12;100200.13;;;37.04;23.56
77110;BME280;66062;52.464;16.922;2023-09-12T12:56:38;100194.78;;;37.42;22.66
77110;BME280;66062;52.464;16.922;2023-09-12T12:59:05;100188.22;;;37.55;23.26
77110;BME280;66062;52.464;16.922;2023-09-12T13:01:33;100186.50;;;38.06;24.19
77110;BME280;66062;52.464;16.922;2023-09-12T13:03:59;100190.44;;;37.96;22.40
77110;BME280;66062;52.464;16.922;2023-09-12T13:06:24;100191.50;;;37.40;24.38
77110;BME280;66062;52.464;16.922;2023-09-12T13:08:52;100183.47;;;37.73;24.62
77110;BME280;66062;52.464;16.922;2023-09-12T13:11:17;100193.63;;;37.43;23.88
77110;BME280;66062;52.464;16.922;2023-09-12T13:13:43;100185.34;;;38.54;23.02
77110;BME280;66062;52.464;16.922;2023-09-12T13:16:10;100183.50;;;39.08;21.43
77110;BME280;66062;52.464;16.922;2023-09-12T13:18:39;100181.97;;;39.40;20.29
77110;BME280;66062;52.464;16.922;2023-09-12T13:21:05;100186.16;;;35.69;25.32
77110;BME280;66062;52.464;16.922;2023-09-12T13:23:31;100177.25;;;37.42;23.19
77110;BME280;66062;52.464;16.922;2023-09-12T13:25:56;100180.97;;;34.13;26.02
77110;BME280;66062;52.464;16.922;2023-09-12T13:28:23;100179.53;;;36.49;23.85
77110;BME280;66062;52.464;16.922;2023-09-12T13:30:52;100177.19;;;37.93;23.38
77110;BME280;66062;52.464;16.922;2023-09-12T13:33:17;100174.09;;;39.12;20.86
77110;BME280;66062;52.464;16.922;2023-09-12T13:35:42;100174.31;;;37.64;22.17
77110;BME280;66062;52.464;16.922;2023-09-12T13:38:08;100166.28;;;37.28;23.43
77110;BME280;66062;52.464;16.922;2023-09-12T13:40:38;100173.81;;;36.54;25.34
77110;BME280;66062;52.464;16.922;2023-09-12T13:43:05;100174.84;;;37.95;22.52
77110;BME280;66062;52.464;16.922;2023-09-12T13:45:30;100172.41;;;37.94;23.33
77110;BME280;66062;52.464;16.922;2023-09-12T13:47:56;100177.72;;;37.01;24.80
77110;BME280;66062;52.464;16.922;2023-09-12T13:50:22;100176.22;;;36.07;27.43
77110;BME280;66062;52.464;16.922;2023-09-12T13:52:48;100157.47;;;34.52;29.21
77110;BME280;66062;52.464;16.922;2023-09-12T13:55:14;100166.31;;;33.80;32.08
77110;BME280;66062;52.464;16.922;2023-09-12T13:57:41;100171.72;;;36.59;25.76
77110;BME280;66062;52.464;16.922;2023-09-12T14:00:07;100175.88;;;36.70;26.35
77110;BME280;66062;52.464;16.922;2023-09-12T14:02:33;100171.91;;;38.09;22.90
77110;BME280;66062;52.464;16.922;2023-09-12T14:04:58;100174.78;;;38.21;22.39
77110;BME280;66062;52.464;16.922;2023-09-12T14:07:23;100175.91;;;37.74;22.81
77110;BME280;66062;52.464;16.922;2023-09-12T14:09:49;100173.56;;;38.98;21.17
77110;BME280;66062;52.464;16.922;2023-09-12T14:12:15;100174.69;;;38.09;23.08
77110;BME280;66062;52.464;16.922;2023-09-12T14:14:40;100175.25;;;37.51;23.93
77110;BME280;66062;52.464;16.922;2023-09-12T14:17:06;100170.53;;;37.43;24.67
77110;BME280;66062;52.464;16.922;2023-09-12T14:19:31;100171.97;;;38.30;23.13
77110;BME280;66062;52.464;16.922;2023-09-12T14:21:57;100167.59;;;36.09;27.90
77110;BME280;66062;52.464;16.922;2023-09-12T14:24:22;100166.13;;;36.42;27.22
77110;BME280;66062;52.464;16.922;2023-09-12T14:26:48;100162.28;;;37.89;22.70
77110;BME280;66062;52.464;16.922;2023-09-12T14:29:14;100177.31;;;35.08;25.97
77110;BME280;66062;52.464;16.922;2023-09-12T14:31:40;100166.28;;;37.37;23.56
77110;BME280;66062;52.464;16.922;2023-09-12T14:34:14;100170.50;;;36.82;23.98
77110;BME280;66062;52.464;16.922;2023-09-12T14:36:39;100170.13;;;35.43;26.64
77110;BME280;66062;52.464;16.922;2023-09-12T14:39:05;100178.31;;;36.01;26.80
77110;BME280;66062;52.464;16.922;2023-09-12T14:41:31;100171.34;;;37.52;23.86
77110;BME280;66062;52.464;16.922;2023-09-12T14:43:57;100171.19;;;37.31;24.08
77110;BME280;66062;52.464;16.922;2023-09-12T14:46:22;100171.69;;;37.42;24.28
77110;BME280;66062;52.464;16.922;2023-09-12T14:48:48;100172.66;;;37.46;23.35
77110;BME280;66062;52.464;16.922;2023-09-12T14:51:13;100178.81;;;35.95;27.03
77110;BME280;66062;52.464;16.922;2023-09-12T14:53:41;100180.06;;;34.72;30.49
77110;BME280;66062;52.464;16.922;2023-09-12T14:56:12;100185.78;;;35.39;30.20
77110;BME280;66062;52.464;16.922;2023-09-12T14:58:38;100183.13;;;34.30;31.33
77110;BME280;66062;52.464;16.922;2023-09-12T15:01:03;100184.69;;;33.76;30.78
77110;BME280;66062;52.464;16.922;2023-09-12T15:03:29;100175.22;;;35.50;28.48
77110;BME280;66062;52.464;16.922;2023-09-12T15:05:54;100177.38;;;34.40;33.08
77110;BME280;66062;52.464;16.922;2023-09-12T15:08:23;100183.81;;;33.43;31.87
77110;BME280;66062;52.464;16.922;2023-09-12T15:10:50;100181.25;;;32.48;31.66
77110;BME280;66062;52.464;16.922;2023-09-12T15:13:23;100182.69;;;34.09;30.20
77110;BME280;66062;52.464;16.922;2023-09-12T15:15:49;100183.13;;;34.30;30.45
77110;BME280;66062;52.464;16.922;2023-09-12T15:18:16;100181.97;;;34.17;30.87
77110;BME280;66062;52.464;16.922;2023-09-12T15:20:42;100183.97;;;33.52;32.71
77110;BME280;66062;52.464;16.922;2023-09-12T15:23:07;100178.78;;;32.47;35.90
77110;BME280;66062;52.464;16.922;2023-09-12T15:25:38;100188.84;;;31.80;37.95
77110;BME280;66062;52.464;16.922;2023-09-12T15:28:05;100190.69;;;31.61;38.21
77110;BME280;66062;52.464;16.922;2023-09-12T15:30:33;100190.81;;;31.40;39.21
77110;BME280;66062;52.464;16.922;2023-09-12T15:32:58;100189.78;;;31.31;35.58
77110;BME280;66062;52.464;16.922;2023-09-12T15:35:26;100190.53;;;30.98;37.43
77110;BME280;66062;52.464;16.922;2023-09-12T15:38:00;100185.50;;;31.15;38.87
77110;BME280;66062;52.464;16.922;2023-09-12T15:40:51;100179.53;;;30.93;39.14
77110;BME280;66062;52.464;16.922;2023-09-12T15:43:17;100177.13;;;31.25;35.90
77110;BME280;66062;52.464;16.922;2023-09-12T15:48:41;100179.09;;;31.20;40.97
77110;BME280;66062;52.464;16.922;2023-09-12T15:51:11;100179.97;;;31.15;37.84
77110;BME280;66062;52.464;16.922;2023-09-12T15:53:38;100177.63;;;31.37;36.81
77110;BME280;66062;52.464;16.922;2023-09-12T15:56:09;100178.41;;;30.94;37.29